createdAt,value
2022-08-21T00:00:44.377Z,225.00
2022-08-21T00:01:42.932Z,225.00
2022-08-21T00:02:42.933Z,225.00
2022-08-21T00:03:42.917Z,225.00
2022-08-21T00:04:48.335Z,237.28
2022-08-21T00:05:42.919Z,0.00
2022-08-21T00:06:42.938Z,0.00
2022-08-21T00:07:42.925Z,266.95
2022-08-21T00:08:42.912Z,225.00
2022-08-21T00:09:42.948Z,225.00
2022-08-21T00:10:42.931Z,290.16
2022-08-21T00:11:42.924Z,315.00
2022-08-21T00:12:42.943Z,315.00
2022-08-21T00:13:42.930Z,309.42
2022-08-21T00:14:42.925Z,315.00
2022-08-21T00:15:42.939Z,315.00
2022-08-21T00:16:42.942Z,315.00
2022-08-21T00:17:42.919Z,315.00
2022-08-21T00:18:42.938Z,315.00
2022-08-21T00:19:42.947Z,315.00
2022-08-21T00:20:42.938Z,315.00
2022-08-21T00:21:44.515Z,315.00
2022-08-21T00:22:42.970Z,315.00
2022-08-21T00:23:42.956Z,308.59
2022-08-21T00:24:42.953Z,225.00
2022-08-21T00:25:42.959Z,225.00
2022-08-21T00:26:42.937Z,225.00
2022-08-21T00:27:42.973Z,225.00
2022-08-21T00:28:42.944Z,225.00
2022-08-21T00:29:42.962Z,225.00
2022-08-21T00:30:42.959Z,225.00
2022-08-21T00:31:42.957Z,225.00
2022-08-21T00:32:42.953Z,225.00
2022-08-21T00:33:42.956Z,225.00
2022-08-21T00:34:42.971Z,225.00
2022-08-21T00:35:42.956Z,225.00
2022-08-21T00:36:42.974Z,225.00
2022-08-21T00:37:42.966Z,225.00
2022-08-21T00:38:42.969Z,225.00
2022-08-21T00:39:43.025Z,225.00
2022-08-21T00:40:42.979Z,225.00
2022-08-21T00:41:42.985Z,225.00
2022-08-21T00:42:42.966Z,225.00
2022-08-21T00:43:42.971Z,225.00
2022-08-21T00:44:42.965Z,276.35
2022-08-21T00:45:42.973Z,315.00
2022-08-21T00:46:42.974Z,315.00
2022-08-21T00:47:42.965Z,299.40
2022-08-21T00:48:42.984Z,225.00
2022-08-21T00:49:42.969Z,225.00
2022-08-21T00:50:42.983Z,225.00
2022-08-21T00:51:43.000Z,225.00
2022-08-21T00:52:42.970Z,225.00
2022-08-21T00:53:42.964Z,262.22
2022-08-21T00:54:44.118Z,0.00
2022-08-21T00:55:43.005Z,0.00
2022-08-21T00:56:42.985Z,0.00
2022-08-21T00:57:42.997Z,0.00
2022-08-21T00:58:42.983Z,0.00
2022-08-21T00:59:42.990Z,0.00
2022-08-21T01:00:43.015Z,0.00
2022-08-21T01:01:43.013Z,0.00
2022-08-21T01:02:43.007Z,0.00
2022-08-21T01:03:44.035Z,0.00
2022-08-21T01:04:42.992Z,0.00
2022-08-21T01:05:42.986Z,0.00
2022-08-21T01:06:43.009Z,0.00
2022-08-21T01:07:43.011Z,0.00
2022-08-21T01:08:47.083Z,0.00
2022-08-21T01:09:43.000Z,0.00
2022-08-21T01:10:43.013Z,0.00
2022-08-21T01:11:43.025Z,0.00
2022-08-21T01:12:43.009Z,0.00
2022-08-21T01:13:43.000Z,0.00
2022-08-21T01:14:43.011Z,0.00
2022-08-21T01:15:42.998Z,0.00
2022-08-21T01:16:43.033Z,0.00
2022-08-21T01:17:43.006Z,0.00
2022-08-21T01:18:43.024Z,0.00
2022-08-21T01:19:43.028Z,0.00
2022-08-21T01:20:43.018Z,0.00
2022-08-21T01:21:43.967Z,0.00
2022-08-21T01:22:43.032Z,330.80
2022-08-21T01:23:43.014Z,225.00
2022-08-21T01:24:43.018Z,225.00
2022-08-21T01:25:43.010Z,225.00
2022-08-21T01:26:43.034Z,225.00
2022-08-21T01:27:43.032Z,225.00
2022-08-21T01:28:43.031Z,225.00
2022-08-21T01:29:43.023Z,225.00
2022-08-21T01:30:43.041Z,225.00
2022-08-21T01:31:43.042Z,225.00
2022-08-21T01:32:43.050Z,225.00
2022-08-21T01:33:43.015Z,225.00
2022-08-21T01:34:43.033Z,225.00
2022-08-21T01:35:43.037Z,225.00
2022-08-21T01:36:43.033Z,225.00
2022-08-21T01:37:43.046Z,225.00
2022-08-21T01:38:43.054Z,225.00
2022-08-21T01:39:43.063Z,225.00
2022-08-21T01:40:43.049Z,225.00
2022-08-21T01:41:43.047Z,225.00
2022-08-21T01:42:43.050Z,225.00
2022-08-21T01:43:43.058Z,225.00
2022-08-21T01:44:43.040Z,225.00
2022-08-21T01:45:43.030Z,225.00
2022-08-21T01:46:43.099Z,225.00
2022-08-21T01:47:43.057Z,225.00
2022-08-21T01:48:43.071Z,225.00
2022-08-21T01:49:43.065Z,225.00
2022-08-21T01:50:43.046Z,225.00
2022-08-21T01:51:43.071Z,225.00
2022-08-21T01:52:43.076Z,225.00
2022-08-21T01:53:43.063Z,225.00
2022-08-21T01:54:43.085Z,225.00
2022-08-21T01:55:43.083Z,225.00
2022-08-21T01:56:43.063Z,225.00
2022-08-21T01:57:43.073Z,225.00
2022-08-21T01:58:43.055Z,225.00
2022-08-21T01:59:43.081Z,225.00
2022-08-21T02:00:43.116Z,225.00
2022-08-21T02:01:43.090Z,225.00
2022-08-21T02:02:43.100Z,225.00
2022-08-21T02:03:43.061Z,225.85
2022-08-21T02:04:43.077Z,315.03
2022-08-21T02:05:43.076Z,315.00
2022-08-21T02:06:43.072Z,315.00
2022-08-21T02:07:43.106Z,315.00
2022-08-21T02:08:43.086Z,315.00
2022-08-21T02:09:43.081Z,315.00
2022-08-21T02:10:43.076Z,315.00
2022-08-21T02:11:43.099Z,315.00
2022-08-21T02:12:43.086Z,315.00
2022-08-21T02:13:43.086Z,315.00
2022-08-21T02:14:43.096Z,315.00
2022-08-21T02:15:43.086Z,315.00
2022-08-21T02:16:43.083Z,315.00
2022-08-21T02:17:43.074Z,315.00
2022-08-21T02:18:43.082Z,315.00
2022-08-21T02:19:43.099Z,315.00
2022-08-21T02:20:43.110Z,315.00
2022-08-21T02:21:43.102Z,315.00
2022-08-21T02:22:43.092Z,315.00
2022-08-21T02:23:43.097Z,320.66
2022-08-21T02:24:54.584Z,0.00
2022-08-21T02:25:43.088Z,0.00
2022-08-21T02:26:43.107Z,0.00
2022-08-21T02:27:43.085Z,0.00
2022-08-21T02:28:43.082Z,0.00
2022-08-21T02:29:43.117Z,0.00
2022-08-21T02:30:43.105Z,0.00
2022-08-21T02:31:43.128Z,0.00
2022-08-21T02:32:43.097Z,0.00
2022-08-21T02:33:43.085Z,0.00
2022-08-21T02:34:43.119Z,0.00
2022-08-21T02:35:43.101Z,0.00
2022-08-21T02:36:43.112Z,0.00
2022-08-21T02:37:43.108Z,0.00
2022-08-21T02:38:43.113Z,357.04
2022-08-21T02:39:43.169Z,302.98
2022-08-21T02:40:43.877Z,315.00
2022-08-21T02:41:43.129Z,315.00
2022-08-21T02:42:43.112Z,315.00
2022-08-21T02:43:43.136Z,315.00
2022-08-21T02:44:43.136Z,315.00
2022-08-21T02:45:43.115Z,315.00
2022-08-21T02:46:43.150Z,315.00
2022-08-21T02:47:43.104Z,315.00
2022-08-21T02:48:43.151Z,315.00
2022-08-21T02:49:43.114Z,315.00
2022-08-21T02:50:43.133Z,267.82
2022-08-21T02:51:43.136Z,308.68
2022-08-21T02:52:43.143Z,315.00
2022-08-21T02:53:43.126Z,315.00
2022-08-21T02:54:43.114Z,315.00
2022-08-21T02:55:43.132Z,315.00
2022-08-21T02:56:43.134Z,315.00
2022-08-21T02:57:43.136Z,315.00
2022-08-21T02:58:43.134Z,315.00
2022-08-21T02:59:43.136Z,315.00
2022-08-21T03:00:43.146Z,315.00
2022-08-21T03:01:43.192Z,315.00
2022-08-21T03:02:43.150Z,315.00
2022-08-21T03:03:43.124Z,315.00
2022-08-21T03:04:46.429Z,315.00
2022-08-21T03:05:43.148Z,315.00
2022-08-21T03:06:43.152Z,315.00
2022-08-21T03:07:43.140Z,315.00
2022-08-21T03:08:43.142Z,315.00
2022-08-21T03:09:45.533Z,315.00
2022-08-21T03:10:43.137Z,315.00
2022-08-21T03:11:43.159Z,315.00
2022-08-21T03:12:43.154Z,315.00
2022-08-21T03:13:43.154Z,315.00
2022-08-21T03:14:43.169Z,315.00
2022-08-21T03:15:43.173Z,315.00
2022-08-21T03:16:43.202Z,315.00
2022-08-21T03:17:43.140Z,315.00
2022-08-21T03:18:43.161Z,315.00
2022-08-21T03:19:43.160Z,315.00
2022-08-21T03:20:43.147Z,315.00
2022-08-21T03:21:43.189Z,315.00
2022-08-21T03:22:43.156Z,315.00
2022-08-21T03:23:43.157Z,315.00
2022-08-21T03:24:43.168Z,315.00
2022-08-21T03:25:43.174Z,315.00
2022-08-21T03:26:43.148Z,315.00
2022-08-21T03:27:43.303Z,315.00
2022-08-21T03:28:43.158Z,315.00
2022-08-21T03:29:43.198Z,315.00
2022-08-21T03:30:43.184Z,315.00
2022-08-21T03:31:43.188Z,259.75
2022-08-21T03:32:43.183Z,225.00
2022-08-21T03:33:43.154Z,225.00
2022-08-21T03:34:43.197Z,270.42
2022-08-21T03:35:43.213Z,0.00
2022-08-21T03:36:43.192Z,0.00
2022-08-21T03:37:43.171Z,0.00
2022-08-21T03:38:43.188Z,351.98
2022-08-21T03:39:43.206Z,225.00
2022-08-21T03:40:43.179Z,225.00
2022-08-21T03:41:43.187Z,225.00
2022-08-21T03:42:43.219Z,225.00
2022-08-21T03:43:43.199Z,225.00
2022-08-21T03:44:43.195Z,225.00
2022-08-21T03:45:43.169Z,225.00
2022-08-21T03:46:43.189Z,225.00
2022-08-21T03:47:43.186Z,225.00
2022-08-21T03:48:43.201Z,225.00
2022-08-21T03:49:43.193Z,229.52
2022-08-21T03:50:43.228Z,225.00
2022-08-21T03:51:43.201Z,225.00
2022-08-21T03:52:43.169Z,225.00
2022-08-21T03:53:43.192Z,269.41
2022-08-21T03:54:43.201Z,315.00
2022-08-21T03:55:43.201Z,315.00
2022-08-21T03:56:43.227Z,315.00
2022-08-21T03:57:43.195Z,315.00
2022-08-21T03:58:43.217Z,315.00
2022-08-21T03:59:43.203Z,315.00
2022-08-21T04:00:43.193Z,315.00
2022-08-21T04:01:43.228Z,315.00
2022-08-21T04:02:43.193Z,315.00
2022-08-21T04:03:43.206Z,315.00
2022-08-21T04:04:43.205Z,315.00
2022-08-21T04:05:43.216Z,315.00
2022-08-21T04:06:43.212Z,315.00
2022-08-21T04:07:43.211Z,315.00
2022-08-21T04:08:43.234Z,315.00
2022-08-21T04:09:43.214Z,315.00
2022-08-21T04:10:43.218Z,315.00
2022-08-21T04:11:43.266Z,315.00
2022-08-21T04:12:43.204Z,315.00
2022-08-21T04:13:44.652Z,315.00
2022-08-21T04:14:43.214Z,315.00
2022-08-21T04:15:43.212Z,315.00
2022-08-21T04:16:43.239Z,315.00
2022-08-21T04:17:43.208Z,315.00
2022-08-21T04:18:43.226Z,315.00
2022-08-21T04:19:43.257Z,315.00
2022-08-21T04:20:43.218Z,315.00
2022-08-21T04:21:43.221Z,315.00
2022-08-21T04:22:43.245Z,315.00
2022-08-21T04:23:43.227Z,315.00
2022-08-21T04:24:43.238Z,315.00
2022-08-21T04:25:43.224Z,315.00
2022-08-21T04:26:43.256Z,315.00
2022-08-21T04:27:43.229Z,315.00
2022-08-21T04:28:43.216Z,315.00
2022-08-21T04:29:43.245Z,315.00
2022-08-21T04:30:43.247Z,315.00
2022-08-21T04:31:43.260Z,315.00
2022-08-21T04:32:43.241Z,315.00
2022-08-21T04:33:43.259Z,315.00
2022-08-21T04:34:43.230Z,315.00
2022-08-21T04:35:43.225Z,315.00
2022-08-21T04:36:43.244Z,315.00
2022-08-21T04:37:43.246Z,315.00
2022-08-21T04:38:44.709Z,315.00
2022-08-21T04:39:43.253Z,315.00
2022-08-21T04:40:43.241Z,315.00
2022-08-21T04:41:43.235Z,315.00
2022-08-21T04:42:43.258Z,315.00
2022-08-21T04:43:43.268Z,315.00
2022-08-21T04:44:43.275Z,315.00
2022-08-21T04:45:43.283Z,315.00
2022-08-21T04:46:43.302Z,315.00
2022-08-21T04:47:52.803Z,315.00
2022-08-21T04:48:43.314Z,315.00
2022-08-21T04:49:43.327Z,315.00
2022-08-21T04:50:43.315Z,315.00
2022-08-21T04:51:43.360Z,315.00
2022-08-21T04:52:43.311Z,315.00
2022-08-21T04:53:43.320Z,315.00
2022-08-21T04:54:43.342Z,315.00
2022-08-21T04:55:43.332Z,315.00
2022-08-21T04:56:43.343Z,315.00
2022-08-21T04:57:48.732Z,315.00
2022-08-21T04:58:43.312Z,315.00
2022-08-21T04:59:43.320Z,315.00
2022-08-21T05:00:43.327Z,315.00
2022-08-21T05:01:43.402Z,315.00
2022-08-21T05:02:43.322Z,315.00
2022-08-21T05:03:43.318Z,315.00
2022-08-21T05:04:43.364Z,315.00
2022-08-21T05:05:43.317Z,315.00
2022-08-21T05:06:43.361Z,315.00
2022-08-21T05:07:43.319Z,315.00
2022-08-21T05:08:43.340Z,315.00
2022-08-21T05:09:43.346Z,353.33
2022-08-21T05:10:43.332Z,345.94
2022-08-21T05:11:43.361Z,315.00
2022-08-21T05:12:43.325Z,315.00
2022-08-21T05:13:43.325Z,315.00
2022-08-21T05:14:43.342Z,315.00
2022-08-21T05:15:43.346Z,315.00
2022-08-21T05:16:43.351Z,315.00
2022-08-21T05:17:43.339Z,315.00
2022-08-21T05:18:43.352Z,315.00
2022-08-21T05:19:43.365Z,315.00
2022-08-21T05:20:43.347Z,315.00
2022-08-21T05:21:43.355Z,315.00
2022-08-21T05:22:43.337Z,315.00
2022-08-21T05:23:43.357Z,315.00
2022-08-21T05:24:43.343Z,315.00
2022-08-21T05:25:43.355Z,315.00
2022-08-21T05:26:45.570Z,315.00
2022-08-21T05:27:43.354Z,315.00
2022-08-21T05:28:43.350Z,315.00
2022-08-21T05:29:43.349Z,315.00
2022-08-21T05:30:43.365Z,272.43
2022-08-21T05:31:43.376Z,225.00
2022-08-21T05:32:43.338Z,225.00
2022-08-21T05:33:43.906Z,225.00
2022-08-21T05:34:43.374Z,225.00
2022-08-21T05:35:43.369Z,225.00
2022-08-21T05:36:43.370Z,225.00
2022-08-21T05:37:43.373Z,225.00
2022-08-21T05:38:43.358Z,225.00
2022-08-21T05:40:05.119Z,225.00
2022-08-21T05:40:43.452Z,225.00
2022-08-21T05:41:43.370Z,225.00
2022-08-21T05:42:43.360Z,225.00
2022-08-21T05:43:43.376Z,225.00
2022-08-21T05:44:43.364Z,225.00
2022-08-21T05:45:44.181Z,225.00
2022-08-21T05:46:43.372Z,225.00
2022-08-21T05:47:43.392Z,225.00
2022-08-21T05:48:43.401Z,225.00
2022-08-21T05:49:43.427Z,225.00
2022-08-21T05:50:43.368Z,225.00
2022-08-21T05:51:43.390Z,225.00
2022-08-21T05:52:43.372Z,225.00
2022-08-21T05:53:43.406Z,225.00
2022-08-21T05:54:43.375Z,254.31
2022-08-21T05:55:46.189Z,315.00
2022-08-21T05:56:43.419Z,315.00
2022-08-21T05:57:43.388Z,315.00
2022-08-21T05:58:43.383Z,315.00
2022-08-21T05:59:43.395Z,315.00
2022-08-21T06:00:43.390Z,315.00
2022-08-21T06:01:43.466Z,315.00
2022-08-21T06:02:43.389Z,315.00
2022-08-21T06:03:43.385Z,315.00
2022-08-21T06:04:43.394Z,315.00
2022-08-21T06:05:43.401Z,315.00
2022-08-21T06:06:43.407Z,315.00
2022-08-21T06:07:43.405Z,315.00
2022-08-21T06:08:43.386Z,315.00
2022-08-21T06:09:43.371Z,315.00
2022-08-21T06:10:43.392Z,315.00
2022-08-21T06:11:43.410Z,315.00
2022-08-21T06:12:43.405Z,315.00
2022-08-21T06:13:43.419Z,315.00
2022-08-21T06:14:43.407Z,292.31
2022-08-21T06:15:43.418Z,262.20
2022-08-21T06:16:43.411Z,225.00
2022-08-21T06:17:43.401Z,225.00
2022-08-21T06:18:43.401Z,225.00
2022-08-21T06:19:43.391Z,225.00
2022-08-21T06:20:43.526Z,254.06
2022-08-21T06:21:43.541Z,315.00
2022-08-21T06:22:43.548Z,315.00
2022-08-21T06:23:43.585Z,315.00
2022-08-21T06:24:43.574Z,315.00
2022-08-21T06:25:43.605Z,315.00
2022-08-21T06:26:43.630Z,315.00
2022-08-21T06:27:43.614Z,315.00
2022-08-21T06:28:43.622Z,315.00
2022-08-21T06:29:44.398Z,315.00
2022-08-21T06:30:43.665Z,315.00
2022-08-21T06:31:43.688Z,315.00
2022-08-21T06:32:43.671Z,276.43
2022-08-21T06:33:43.665Z,315.00
2022-08-21T06:34:43.707Z,315.00
2022-08-21T06:35:43.709Z,315.00
2022-08-21T06:36:43.992Z,315.00
2022-08-21T06:37:43.726Z,315.00
2022-08-21T06:38:49.125Z,315.00
2022-08-21T06:39:45.320Z,315.00
2022-08-21T06:40:47.077Z,315.00
2022-08-21T06:41:43.780Z,315.00
2022-08-21T06:42:43.751Z,315.00
2022-08-21T06:43:43.739Z,315.00
2022-08-21T06:44:43.765Z,315.00
2022-08-21T06:45:43.753Z,315.00
2022-08-21T06:46:43.778Z,356.62
2022-08-21T06:47:43.735Z,0.00
2022-08-21T06:48:43.762Z,0.00
2022-08-21T06:49:43.756Z,340.66
2022-08-21T06:50:43.765Z,225.00
2022-08-21T06:51:43.816Z,225.00
2022-08-21T06:52:43.778Z,284.60
2022-08-21T06:53:43.760Z,315.00
2022-08-21T06:54:43.767Z,315.00
2022-08-21T06:55:43.785Z,313.85
2022-08-21T06:56:43.778Z,225.00
2022-08-21T06:57:47.658Z,233.01
2022-08-21T06:58:43.757Z,225.00
2022-08-21T06:59:43.803Z,225.00
2022-08-21T07:00:43.764Z,225.00
2022-08-21T07:01:43.859Z,225.00
2022-08-21T07:02:43.792Z,225.00
2022-08-21T07:03:43.786Z,225.00
2022-08-21T07:04:43.755Z,225.00
2022-08-21T07:05:43.769Z,225.00
2022-08-21T07:06:43.781Z,225.00
2022-08-21T07:07:43.790Z,236.25
2022-08-21T07:08:43.783Z,315.00
2022-08-21T07:09:43.777Z,315.00
2022-08-21T07:10:43.797Z,315.00
2022-08-21T07:11:47.635Z,315.00
2022-08-21T07:12:43.783Z,315.00
2022-08-21T07:13:43.770Z,315.00
2022-08-21T07:14:43.786Z,315.00
2022-08-21T07:15:43.790Z,315.00
2022-08-21T07:16:43.795Z,315.00
2022-08-21T07:17:43.798Z,315.00
2022-08-21T07:18:43.802Z,315.00
2022-08-21T07:19:43.797Z,315.00
2022-08-21T07:20:43.789Z,306.40
2022-08-21T07:21:43.822Z,225.00
2022-08-21T07:22:43.810Z,242.15
2022-08-21T07:23:43.803Z,286.14
2022-08-21T07:24:43.800Z,312.40
2022-08-21T07:25:43.806Z,315.00
2022-08-21T07:26:43.845Z,315.00
2022-08-21T07:27:43.815Z,315.00
2022-08-21T07:28:43.803Z,315.00
2022-08-21T07:29:43.801Z,307.70
2022-08-21T07:30:43.817Z,315.00
2022-08-21T07:31:43.838Z,315.00
2022-08-21T07:32:43.811Z,315.00
2022-08-21T07:33:43.799Z,296.03
2022-08-21T07:34:43.853Z,225.00
2022-08-21T07:35:43.821Z,306.30
2022-08-21T07:36:43.833Z,358.98
2022-08-21T07:37:43.809Z,228.38
2022-08-21T07:38:43.812Z,272.35
2022-08-21T07:39:43.858Z,333.81
2022-08-21T07:40:43.812Z,312.78
2022-08-21T07:41:43.834Z,304.55
2022-08-21T07:42:43.825Z,279.10
2022-08-21T07:43:46.006Z,205.19
2022-08-21T07:44:43.839Z,135.00
2022-08-21T07:45:43.827Z,315.00
2022-08-21T07:46:43.837Z,303.78
2022-08-21T07:47:43.833Z,330.76
2022-08-21T07:48:43.853Z,356.16
2022-08-21T07:49:43.834Z,322.51
2022-08-21T07:50:43.854Z,316.21
2022-08-21T07:51:43.870Z,328.93
2022-08-21T07:52:43.844Z,24.36
2022-08-21T07:53:43.852Z,347.76
2022-08-21T07:54:43.835Z,315.00
2022-08-21T07:55:43.844Z,343.39
2022-08-21T07:56:43.868Z,315.00
2022-08-21T07:57:43.837Z,315.00
2022-08-21T07:58:43.857Z,315.00
2022-08-21T07:59:43.897Z,316.13
2022-08-21T08:00:43.901Z,31.17
2022-08-21T08:01:43.968Z,45.17
2022-08-21T08:02:43.911Z,321.57
2022-08-21T08:03:43.929Z,349.39
2022-08-21T08:04:51.072Z,359.05
2022-08-21T08:05:43.938Z,0.00
2022-08-21T08:06:43.970Z,349.38
2022-08-21T08:07:43.950Z,221.51
2022-08-21T08:08:43.945Z,348.28
2022-08-21T08:09:43.940Z,314.14
2022-08-21T08:10:43.955Z,164.82
2022-08-21T08:11:43.962Z,15.26
2022-08-21T08:12:43.955Z,47.21
2022-08-21T08:13:43.956Z,284.04
2022-08-21T08:14:43.995Z,335.40
2022-08-21T08:15:43.960Z,315.00
2022-08-21T08:16:43.975Z,318.66
2022-08-21T08:17:43.971Z,315.00
2022-08-21T08:18:43.959Z,315.00
2022-08-21T08:19:43.984Z,285.88
2022-08-21T08:20:43.970Z,315.00
2022-08-21T08:21:43.986Z,315.00
2022-08-21T08:22:43.962Z,315.00
2022-08-21T08:23:43.986Z,315.00
2022-08-21T08:24:43.952Z,274.72
2022-08-21T08:25:43.973Z,339.77
2022-08-21T08:26:43.986Z,313.07
2022-08-21T08:27:43.975Z,280.55
2022-08-21T08:28:43.978Z,306.75
2022-08-21T08:29:43.968Z,225.00
2022-08-21T08:30:43.976Z,225.00
2022-08-21T08:31:44.003Z,253.66
2022-08-21T08:32:43.975Z,315.00
2022-08-21T08:33:44.000Z,315.00
2022-08-21T08:34:43.997Z,331.79
2022-08-21T08:35:43.994Z,271.93
2022-08-21T08:36:43.994Z,316.24
2022-08-21T08:37:44.000Z,315.00
2022-08-21T08:38:44.074Z,351.25
2022-08-21T08:39:44.105Z,346.39
2022-08-21T08:40:44.082Z,315.00
2022-08-21T08:41:44.117Z,315.00
2022-08-21T08:42:44.163Z,273.27
2022-08-21T08:43:44.195Z,254.95
2022-08-21T08:44:44.222Z,283.57
2022-08-21T08:45:44.232Z,304.81
2022-08-21T08:46:44.252Z,325.22
2022-08-21T08:47:44.249Z,222.88
2022-08-21T08:48:46.305Z,188.57
2022-08-21T08:49:44.261Z,231.93
2022-08-21T08:50:44.260Z,330.74
2022-08-21T08:51:44.285Z,286.12
2022-08-21T08:52:44.269Z,329.41
2022-08-21T08:53:44.274Z,315.00
2022-08-21T08:54:44.271Z,309.55
2022-08-21T08:55:44.285Z,225.00
2022-08-21T08:56:44.278Z,229.22
2022-08-21T08:57:44.282Z,259.52
2022-08-21T08:58:44.293Z,336.67
2022-08-21T08:59:44.298Z,351.76
2022-08-21T09:00:44.316Z,3.14
2022-08-21T09:01:44.364Z,68.46
2022-08-21T09:02:44.284Z,296.04
2022-08-21T09:03:44.279Z,262.37
2022-08-21T09:04:44.276Z,273.39
2022-08-21T09:05:44.297Z,299.12
2022-08-21T09:06:44.279Z,324.80
2022-08-21T09:07:44.301Z,287.90
2022-08-21T09:08:44.299Z,322.15
2022-08-21T09:09:44.285Z,303.91
2022-08-21T09:10:44.312Z,341.88
2022-08-21T09:11:44.319Z,238.19
2022-08-21T09:12:44.316Z,335.51
2022-08-21T09:13:44.296Z,316.19
2022-08-21T09:14:44.296Z,326.86
2022-08-21T09:15:44.298Z,340.61
2022-08-21T09:16:44.343Z,223.87
2022-08-21T09:17:44.320Z,17.85
2022-08-21T09:18:44.335Z,0.00
2022-08-21T09:19:44.316Z,344.79
2022-08-21T09:20:44.301Z,346.64
2022-08-21T09:21:44.325Z,239.59
2022-08-21T09:22:44.331Z,225.00
2022-08-21T09:23:44.319Z,225.00
2022-08-21T09:24:45.098Z,308.65
2022-08-21T09:25:44.400Z,32.79
2022-08-21T09:26:44.411Z,277.84
2022-08-21T09:27:44.407Z,272.54
2022-08-21T09:28:44.423Z,225.00
2022-08-21T09:29:44.439Z,264.57
2022-08-21T09:30:44.459Z,281.90
2022-08-21T09:31:44.491Z,278.71
2022-08-21T09:32:44.487Z,227.23
2022-08-21T09:33:44.499Z,230.82
2022-08-21T09:34:44.494Z,274.88
2022-08-21T09:35:44.527Z,342.51
2022-08-21T09:36:44.845Z,315.00
2022-08-21T09:37:44.518Z,315.00
2022-08-21T09:38:44.541Z,306.88
2022-08-21T09:39:48.313Z,292.68
2022-08-21T09:40:44.558Z,311.29
2022-08-21T09:41:44.588Z,267.34
2022-08-21T09:42:44.556Z,267.79
2022-08-21T09:43:44.553Z,0.00
2022-08-21T09:44:44.580Z,284.28
2022-08-21T09:45:44.585Z,270.00
2022-08-21T09:46:44.596Z,254.41
2022-08-21T09:47:44.578Z,245.87
2022-08-21T09:48:44.574Z,294.90
2022-08-21T09:49:44.575Z,315.00
2022-08-21T09:50:44.571Z,272.82
2022-08-21T09:51:44.592Z,270.00
2022-08-21T09:52:44.555Z,270.00
2022-08-21T09:53:44.570Z,310.00
2022-08-21T09:54:44.585Z,272.83
2022-08-21T09:55:44.581Z,298.39
2022-08-21T09:56:44.605Z,285.43
2022-08-21T09:57:46.892Z,266.50
2022-08-21T09:58:44.578Z,135.00
2022-08-21T09:59:44.591Z,353.37
2022-08-21T10:00:44.630Z,320.06
2022-08-21T10:01:44.586Z,319.96
2022-08-21T10:02:44.590Z,326.24
2022-08-21T10:03:44.599Z,108.94
2022-08-21T10:04:44.599Z,306.59
2022-08-21T10:05:44.617Z,296.21
2022-08-21T10:06:44.596Z,295.49
2022-08-21T10:07:44.599Z,315.00
2022-08-21T10:08:44.605Z,315.00
2022-08-21T10:09:44.610Z,315.00
2022-08-21T10:10:44.614Z,288.02
2022-08-21T10:11:44.615Z,273.93
2022-08-21T10:12:44.600Z,279.71
2022-08-21T10:13:44.603Z,315.00
2022-08-21T10:14:44.605Z,272.80
2022-08-21T10:15:44.603Z,270.00
2022-08-21T10:16:44.632Z,316.73
2022-08-21T10:17:44.624Z,230.57
2022-08-21T10:18:44.618Z,240.41
2022-08-21T10:19:44.618Z,326.90
2022-08-21T10:20:44.617Z,303.41
2022-08-21T10:21:44.635Z,273.61
2022-08-21T10:22:44.630Z,307.84
2022-08-21T10:23:44.646Z,349.87
2022-08-21T10:24:44.618Z,246.19
2022-08-21T10:25:56.386Z,335.44
2022-08-21T10:26:44.654Z,279.81
2022-08-21T10:27:44.654Z,270.00
2022-08-21T10:28:44.652Z,268.96
2022-08-21T10:29:44.646Z,322.85
2022-08-21T10:30:44.643Z,272.80
2022-08-21T10:31:44.657Z,308.19
2022-08-21T10:32:44.632Z,264.23
2022-08-21T10:33:44.641Z,287.01
2022-08-21T10:34:44.662Z,357.39
2022-08-21T10:35:44.646Z,2.28
2022-08-21T10:36:44.654Z,348.26
2022-08-21T10:37:44.665Z,292.65
2022-08-21T10:38:58.726Z,29.78
2022-08-21T10:39:44.668Z,217.99
2022-08-21T10:40:44.665Z,162.35
2022-08-21T10:41:44.679Z,301.35
2022-08-21T10:42:44.662Z,311.71
2022-08-21T10:43:44.664Z,273.55
2022-08-21T10:44:44.658Z,292.55
2022-08-21T10:45:44.676Z,244.58
2022-08-21T10:46:44.683Z,295.90
2022-08-21T10:47:44.653Z,314.98
2022-08-21T10:48:44.669Z,222.77
2022-08-21T10:49:44.662Z,317.75
2022-08-21T10:50:44.679Z,294.77
2022-08-21T10:51:44.693Z,268.99
2022-08-21T10:52:44.675Z,270.00
2022-08-21T10:53:44.675Z,270.00
2022-08-21T10:54:44.675Z,286.89
2022-08-21T10:55:44.685Z,292.11
2022-08-21T10:56:44.689Z,270.00
2022-08-21T10:57:44.704Z,284.01
2022-08-21T10:58:44.859Z,300.93
2022-08-21T10:59:44.690Z,280.36
2022-08-21T11:00:44.699Z,220.69
2022-08-21T11:01:44.675Z,335.82
2022-08-21T11:02:44.699Z,270.00
2022-08-21T11:03:44.690Z,263.02
2022-08-21T11:04:49.674Z,292.52
2022-08-21T11:05:48.820Z,271.95
2022-08-21T11:06:44.707Z,308.62
2022-08-21T11:07:44.689Z,263.95
2022-08-21T11:08:44.689Z,276.26
2022-08-21T11:09:44.706Z,266.72
2022-08-21T11:10:58.024Z,270.00
2022-08-21T11:11:55.231Z,272.97
2022-08-21T11:12:44.706Z,262.85
2022-08-21T11:13:44.714Z,296.69
2022-08-21T11:14:50.320Z,312.13
2022-08-21T11:15:44.730Z,267.94
2022-08-21T11:16:44.729Z,264.82
2022-08-21T11:17:44.727Z,249.69
2022-08-21T11:18:44.759Z,267.40
2022-08-21T11:19:44.711Z,268.68
2022-08-21T11:20:44.706Z,287.29
2022-08-21T11:21:44.754Z,271.00
2022-08-21T11:22:44.732Z,271.34
2022-08-21T11:23:44.733Z,270.50
2022-08-21T11:24:44.724Z,319.87
2022-08-21T11:25:44.731Z,301.25
2022-08-21T11:26:44.756Z,285.66
2022-08-21T11:27:44.732Z,263.43
2022-08-21T11:28:44.733Z,275.73
2022-08-21T11:29:44.752Z,266.50
2022-08-21T11:30:44.753Z,276.87
2022-08-21T11:31:44.732Z,266.56
2022-08-21T11:32:44.738Z,270.04
2022-08-21T11:33:44.726Z,298.49
2022-08-21T11:34:44.731Z,337.77
2022-08-21T11:35:44.765Z,277.03
2022-08-21T11:36:47.082Z,281.40
2022-08-21T11:37:44.875Z,249.29
2022-08-21T11:38:44.899Z,298.19
2022-08-21T11:39:44.960Z,4.51
2022-08-21T11:40:44.920Z,185.39
2022-08-21T11:41:44.946Z,292.23
2022-08-21T11:42:45.000Z,257.70
2022-08-21T11:43:44.968Z,261.94
2022-08-21T11:44:44.959Z,259.04
2022-08-21T11:45:44.985Z,270.00
2022-08-21T11:46:44.988Z,277.03
2022-08-21T11:47:45.007Z,265.95
2022-08-21T11:48:45.040Z,277.51
2022-08-21T11:49:45.021Z,305.90
2022-08-21T11:50:45.057Z,302.68
2022-08-21T11:51:45.057Z,325.35
2022-08-21T11:52:45.092Z,262.43
2022-08-21T11:53:45.094Z,266.38
2022-08-21T11:54:45.079Z,261.37
2022-08-21T11:55:45.107Z,309.03
2022-08-21T11:56:45.100Z,253.76
2022-08-21T11:57:45.146Z,301.15
2022-08-21T11:58:45.158Z,269.08
2022-08-21T11:59:45.169Z,230.78
2022-08-21T12:00:45.155Z,266.80
2022-08-21T12:01:45.254Z,280.81
2022-08-21T12:02:45.201Z,289.32
2022-08-21T12:03:45.177Z,265.43
2022-08-21T12:04:47.036Z,276.45
2022-08-21T12:05:45.237Z,312.52
2022-08-21T12:06:45.248Z,274.41
2022-08-21T12:07:45.262Z,272.58
2022-08-21T12:08:45.271Z,258.27
2022-08-21T12:09:45.292Z,277.75
2022-08-21T12:10:45.298Z,272.03
2022-08-21T12:11:45.322Z,270.00
2022-08-21T12:12:45.324Z,270.00
2022-08-21T12:13:45.343Z,293.87
2022-08-21T12:14:45.341Z,273.93
2022-08-21T12:15:45.374Z,301.56
2022-08-21T12:16:45.399Z,270.36
2022-08-21T12:17:45.393Z,265.60
2022-08-21T12:18:45.404Z,266.84
2022-08-21T12:19:45.426Z,266.51
2022-08-21T12:20:50.695Z,274.57
2022-08-21T12:21:45.438Z,278.23
2022-08-21T12:22:45.425Z,270.00
2022-08-21T12:23:45.397Z,337.55
2022-08-21T12:24:45.440Z,86.98
2022-08-21T12:25:45.434Z,293.01
2022-08-21T12:26:45.451Z,261.82
2022-08-21T12:27:45.432Z,268.68
2022-08-21T12:28:45.440Z,268.19
2022-08-21T12:29:45.443Z,273.49
2022-08-21T12:30:45.440Z,268.69
2022-08-21T12:31:45.451Z,279.18
2022-08-21T12:32:45.442Z,268.23